Fruto, California
Current Conditions -  °F | °C
As of 9:53 AM on Friday 19 Dec 2014 (Local Time) from KOVE Reporting Station
Overcast Overcast  
Wind Chill: 52°   Ceiling: 8000
Heat Index: 52°   Visibility: 10mi
Dew Point: 48°   Wind: 21mph
Humidity: 86%   Direction: 130°SE
Pressure: 30.16"   Gusts: 26mph
Location:  39.5041°N, 122.217°W
Report Text: KOVE 191753Z AUTO 13018G23KT 10SM FEW019 BKN080 OVC090 11/09 A3016 RMK AO2 RAE48 SLP217 P0009 60066 T01110089 10122 20106 50014
Loading
Personal Weather Stations






























Interactive Weather Map New forecast layout! Learn more

10-Day Weather Forecast

Advertisements
Track Severe Weather on mobile